createdAt,value
2023-03-30T00:01:07.382Z,1
2023-03-30T00:03:07.653Z,1
2023-03-30T00:05:07.786Z,1
2023-03-30T00:07:07.638Z,1
2023-03-30T00:09:11.682Z,1
2023-03-30T00:11:10.687Z,1
2023-03-30T00:13:07.356Z,1
2023-03-30T00:15:14.145Z,1
2023-03-30T00:17:07.375Z,1
2023-03-30T00:19:10.942Z,1
2023-03-30T00:21:07.649Z,1
2023-03-30T00:23:07.500Z,1
2023-03-30T00:25:07.565Z,1
2023-03-30T00:27:14.814Z,1
2023-03-30T00:29:07.493Z,1
2023-03-30T00:31:12.167Z,1
2023-03-30T00:33:11.206Z,1
2023-03-30T00:35:07.660Z,1
2023-03-30T00:37:07.396Z,1
2023-03-30T00:39:07.423Z,1
2023-03-30T00:41:11.000Z,1
2023-03-30T00:43:07.513Z,1
2023-03-30T00:45:07.638Z,1
2023-03-30T00:47:11.088Z,1
2023-03-30T00:49:07.509Z,1
2023-03-30T00:51:10.846Z,1
2023-03-30T00:53:07.413Z,1
2023-03-30T00:55:07.303Z,1
2023-03-30T00:57:07.565Z,1
2023-03-30T00:59:07.518Z,1
2023-03-30T01:01:13.876Z,1
2023-03-30T01:03:07.711Z,1
2023-03-30T01:05:07.531Z,1
2023-03-30T01:07:07.532Z,1
2023-03-30T01:11:07.650Z,1
2023-03-30T01:13:10.926Z,1
2023-03-30T01:15:07.418Z,1
2023-03-30T01:17:07.578Z,1
2023-03-30T01:19:11.000Z,1
2023-03-30T01:21:07.406Z,1
2023-03-30T01:25:07.394Z,1
2023-03-30T01:27:14.611Z,1
2023-03-30T01:29:07.450Z,1
2023-03-30T01:31:08.058Z,1
2023-03-30T01:33:07.480Z,1
2023-03-30T01:35:07.784Z,1
2023-03-30T01:37:07.616Z,1
2023-03-30T01:39:07.541Z,1
2023-03-30T01:41:07.721Z,1
2023-03-30T01:43:07.812Z,1
2023-03-30T01:45:14.389Z,1
2023-03-30T01:47:07.482Z,1
2023-03-30T01:49:07.395Z,1
2023-03-30T01:51:13.978Z,1
2023-03-30T01:53:07.582Z,1
2023-03-30T01:55:07.432Z,1
2023-03-30T01:57:07.466Z,1
2023-03-30T01:59:07.447Z,1
2023-03-30T02:01:10.970Z,1
2023-03-30T02:03:07.475Z,1
2023-03-30T02:05:07.829Z,1
2023-03-30T02:07:11.005Z,1
2023-03-30T02:09:07.768Z,1
2023-03-30T02:11:07.619Z,1
2023-03-30T02:13:07.614Z,1
2023-03-30T02:15:07.432Z,1
2023-03-30T02:17:07.834Z,1
2023-03-30T02:19:07.747Z,1
2023-03-30T02:21:11.149Z,1
2023-03-30T02:23:07.478Z,1
2023-03-30T02:25:07.419Z,1
2023-03-30T02:27:07.616Z,1
2023-03-30T02:29:07.698Z,1
2023-03-30T02:31:07.479Z,1
2023-03-30T02:33:14.227Z,1
2023-03-30T02:35:07.389Z,1
2023-03-30T02:37:08.165Z,1
2023-03-30T02:39:12.525Z,1
2023-03-30T02:43:07.394Z,1
2023-03-30T02:45:09.170Z,1
2023-03-30T02:47:07.638Z,1
2023-03-30T02:49:07.689Z,1
2023-03-30T02:51:08.169Z,1
2023-03-30T02:53:07.683Z,1
2023-03-30T02:55:07.386Z,1
2023-03-30T02:57:07.879Z,1
2023-03-30T02:59:11.362Z,1
2023-03-30T03:01:07.859Z,1
2023-03-30T03:03:10.849Z,1
2023-03-30T03:05:07.398Z,1
2023-03-30T03:07:07.570Z,1
2023-03-30T03:09:07.461Z,1
2023-03-30T03:11:07.747Z,1
2023-03-30T03:13:07.492Z,1
2023-03-30T03:15:07.899Z,1
2023-03-30T03:17:08.478Z,1
2023-03-30T03:19:07.543Z,1
2023-03-30T03:21:10.631Z,1
2023-03-30T03:23:07.652Z,1
2023-03-30T03:25:15.105Z,1
2023-03-30T03:27:07.458Z,1
2023-03-30T03:29:07.499Z,1
2023-03-30T03:31:08.052Z,1
2023-03-30T03:33:07.617Z,1
2023-03-30T03:35:07.684Z,1
2023-03-30T03:37:10.770Z,1
2023-03-30T03:39:11.102Z,1
2023-03-30T03:41:07.677Z,1
2023-03-30T03:43:07.505Z,1
2023-03-30T03:45:15.012Z,1
2023-03-30T03:47:07.529Z,1
2023-03-30T03:49:14.641Z,1
2023-03-30T03:51:07.746Z,1
2023-03-30T03:53:07.490Z,1
2023-03-30T03:55:07.472Z,1
2023-03-30T03:57:07.510Z,1
2023-03-30T03:59:10.838Z,1
2023-03-30T04:01:07.684Z,1
2023-03-30T04:03:10.865Z,1
2023-03-30T04:05:11.023Z,1
2023-03-30T04:07:07.454Z,1
2023-03-30T04:09:07.366Z,1
2023-03-30T04:11:10.933Z,1
2023-03-30T04:13:07.590Z,1
2023-03-30T04:15:07.687Z,1
2023-03-30T04:17:11.083Z,1
2023-03-30T04:19:07.474Z,1
2023-03-30T04:21:07.605Z,1
2023-03-30T04:23:07.473Z,1
2023-03-30T04:25:11.521Z,1
2023-03-30T04:27:07.430Z,0
2023-03-30T04:29:07.467Z,0
2023-03-30T04:31:10.949Z,0
2023-03-30T04:33:07.485Z,0.1
2023-03-30T04:35:07.516Z,0.2
2023-03-30T04:37:07.701Z,0.2
2023-03-30T04:39:10.862Z,0.3
2023-03-30T04:41:07.588Z,0.5
2023-03-30T04:43:07.483Z,0.7
2023-03-30T04:45:07.633Z,0.9
2023-03-30T04:47:07.397Z,1.2
2023-03-30T04:49:07.470Z,1.6
2023-03-30T04:51:07.560Z,2.1
2023-03-30T04:53:07.394Z,2.7
2023-03-30T04:55:07.596Z,3.3
2023-03-30T04:57:14.443Z,4.3
2023-03-30T04:59:07.572Z,5.2
2023-03-30T05:01:11.239Z,6.7
2023-03-30T05:03:07.626Z,9
2023-03-30T05:05:07.568Z,13.5
2023-03-30T05:07:07.369Z,18.2
2023-03-30T05:09:07.360Z,23.3
2023-03-30T05:11:10.723Z,28.5
2023-03-30T05:13:07.579Z,36.6
2023-03-30T05:15:07.728Z,54.6
2023-03-30T05:17:08.069Z,70.1
2023-03-30T05:19:07.716Z,81.5
2023-03-30T05:23:07.379Z,109.9
2023-03-30T05:25:07.382Z,141.2
2023-03-30T05:27:07.560Z,148.4
2023-03-30T05:29:07.724Z,127.7
2023-03-30T05:31:08.074Z,141.2
2023-03-30T05:33:07.710Z,181.3
2023-03-30T05:35:10.992Z,190.6
2023-03-30T05:37:07.441Z,181.3
2023-03-30T05:39:07.617Z,190.6
2023-03-30T05:41:07.452Z,232.8
2023-03-30T05:43:08.807Z,314.2
2023-03-30T05:45:07.430Z,365
2023-03-30T05:47:07.672Z,445.9
2023-03-30T05:49:11.306Z,572.5
2023-03-30T05:51:08.185Z,665.1
2023-03-30T05:53:07.606Z,772.8
2023-03-30T05:55:11.143Z,772.8
2023-03-30T05:57:07.547Z,699.2
2023-03-30T05:59:07.571Z,632.7
2023-03-30T06:01:10.923Z,601.8
2023-03-30T06:03:07.739Z,601.8
2023-03-30T06:05:10.961Z,632.7
2023-03-30T06:07:07.650Z,699.2
2023-03-30T06:09:14.662Z,812.4
2023-03-30T06:11:07.645Z,992.3
2023-03-30T06:13:10.805Z,1274.1
2023-03-30T06:15:07.478Z,1274.1
2023-03-30T06:17:07.419Z,1096.6
2023-03-30T06:19:07.434Z,735.1
2023-03-30T06:21:07.804Z,632.7
2023-03-30T06:23:13.918Z,735.1
2023-03-30T06:25:07.702Z,1096.6
2023-03-30T06:27:07.969Z,1480.3
2023-03-30T06:29:11.004Z,1808
2023-03-30T06:31:10.960Z,1998.2
2023-03-30T06:33:07.791Z,1998.2
2023-03-30T06:35:07.684Z,1808
2023-03-30T06:37:10.725Z,1719.9
2023-03-30T06:39:07.673Z,1556.2
2023-03-30T06:41:07.536Z,1480.3
2023-03-30T06:43:07.981Z,1636
2023-03-30T06:45:07.585Z,1719.9
2023-03-30T06:47:14.272Z,1808
2023-03-30T06:49:07.539Z,1808
2023-03-30T06:51:07.832Z,1900.7
2023-03-30T06:53:07.546Z,2100.6
2023-03-30T06:55:07.720Z,2100.6
2023-03-30T06:57:08.039Z,2100.6
2023-03-30T06:59:07.830Z,2321.6
2023-03-30T07:01:07.751Z,2440.6
2023-03-30T07:03:07.625Z,2565.7
2023-03-30T07:05:07.740Z,2697.3
2023-03-30T07:07:07.642Z,2321.6
2023-03-30T07:09:07.909Z,1998.2
2023-03-30T07:11:07.644Z,1480.3
2023-03-30T07:13:07.590Z,1096.6
2023-03-30T07:15:07.721Z,1043.1
2023-03-30T07:17:11.147Z,1212
2023-03-30T07:19:07.704Z,1408.1
2023-03-30T07:21:07.844Z,1556.2
2023-03-30T07:23:07.663Z,1808
2023-03-30T07:25:07.646Z,1900.7
2023-03-30T07:27:07.555Z,1998.2
2023-03-30T07:29:07.887Z,1998.2
2023-03-30T07:31:11.048Z,1808
2023-03-30T07:33:07.625Z,1480.3
2023-03-30T07:35:07.450Z,1339.4
2023-03-30T07:37:07.869Z,1339.4
2023-03-30T07:39:07.661Z,1480.3
2023-03-30T07:41:07.964Z,1636
2023-03-30T07:43:07.664Z,2208.3
2023-03-30T07:45:07.795Z,2835.6
2023-03-30T07:47:07.551Z,2981
2023-03-30T07:49:08.051Z,2981
2023-03-30T07:51:07.553Z,2981
2023-03-30T07:53:11.071Z,2981
2023-03-30T07:55:07.718Z,2697.3
2023-03-30T07:57:10.785Z,2697.3
2023-03-30T07:59:11.033Z,2440.6
2023-03-30T08:01:07.623Z,2100.6
2023-03-30T08:03:07.636Z,2100.6
2023-03-30T08:05:07.561Z,2100.6
2023-03-30T08:07:07.573Z,1719.9
2023-03-30T08:09:07.861Z,1408.1
2023-03-30T08:11:07.769Z,1152.9
2023-03-30T08:13:10.732Z,992.3
2023-03-30T08:15:07.845Z,1152.9
2023-03-30T08:17:10.889Z,1408.1
2023-03-30T08:19:08.496Z,1480.3
2023-03-30T08:21:07.612Z,1480.3
2023-03-30T08:25:07.685Z,1900.7
2023-03-30T08:27:07.508Z,2208.3
2023-03-30T08:29:10.936Z,2697.3
2023-03-30T08:31:07.483Z,2981
2023-03-30T08:33:07.471Z,3133.8
2023-03-30T08:35:07.427Z,3294.5
2023-03-30T08:37:07.546Z,2835.6
2023-03-30T08:39:11.076Z,2565.7
2023-03-30T08:41:07.708Z,2208.3
2023-03-30T08:43:10.972Z,2208.3
2023-03-30T08:45:07.499Z,2208.3
2023-03-30T08:47:07.850Z,2208.3
2023-03-30T08:49:14.305Z,2565.7
2023-03-30T08:51:07.477Z,2835.6
2023-03-30T08:53:07.558Z,2835.6
2023-03-30T08:55:07.631Z,3463.4
2023-03-30T08:57:07.642Z,4675.1
2023-03-30T08:59:07.467Z,6310.7
2023-03-30T09:01:08.115Z,7707.9
2023-03-30T09:03:07.830Z,8103.1
2023-03-30T09:05:11.197Z,7707.9
2023-03-30T09:07:07.619Z,8103.1
2023-03-30T09:09:07.744Z,9414.4
2023-03-30T09:11:11.040Z,6310.7
2023-03-30T09:13:07.481Z,4023.9
2023-03-30T09:15:10.718Z,3294.5
2023-03-30T09:17:10.868Z,2697.3
2023-03-30T09:19:07.875Z,2697.3
2023-03-30T09:21:11.080Z,3294.5
2023-03-30T09:23:07.742Z,4023.9
2023-03-30T09:25:07.439Z,3641
2023-03-30T09:27:07.436Z,2565.7
2023-03-30T09:29:07.869Z,1998.2
2023-03-30T09:31:07.876Z,1900.7
2023-03-30T09:33:07.831Z,2208.3
2023-03-30T09:37:10.868Z,3641
2023-03-30T09:39:07.545Z,3641
2023-03-30T09:41:07.463Z,3641
2023-03-30T09:43:07.737Z,3133.8
2023-03-30T09:45:07.500Z,2835.6
2023-03-30T09:47:07.736Z,2835.6
2023-03-30T09:49:07.433Z,2835.6
2023-03-30T09:51:07.657Z,3294.5
2023-03-30T09:53:14.428Z,3294.5
2023-03-30T09:55:07.437Z,3294.5
2023-03-30T09:57:11.119Z,3294.5
2023-03-30T09:59:07.705Z,3294.5
2023-03-30T10:01:10.774Z,3294.5
2023-03-30T10:03:14.130Z,3133.8
2023-03-30T10:05:07.526Z,2835.6
2023-03-30T10:07:18.193Z,3133.8
2023-03-30T10:11:07.513Z,1998.2
2023-03-30T10:13:13.984Z,1900.7
2023-03-30T10:15:07.526Z,1998.2
2023-03-30T10:17:11.019Z,1998.2
2023-03-30T10:19:07.447Z,1808
2023-03-30T10:21:07.946Z,1808
2023-03-30T10:23:07.443Z,1900.7
2023-03-30T10:25:09.841Z,2100.6
2023-03-30T10:27:07.686Z,2835.6
2023-03-30T10:29:11.072Z,2565.7
2023-03-30T10:31:10.873Z,1808
2023-03-30T10:33:07.560Z,1096.6
2023-03-30T10:35:07.517Z,1096.6
2023-03-30T10:37:07.546Z,1998.2
2023-03-30T10:39:07.485Z,2565.7
2023-03-30T10:41:07.708Z,2208.3
2023-03-30T10:43:07.639Z,2321.6
2023-03-30T10:45:11.148Z,2565.7
2023-03-30T10:47:07.569Z,2321.6
2023-03-30T10:49:07.460Z,2208.3
2023-03-30T10:53:07.452Z,1480.3
2023-03-30T10:55:07.455Z,1408.1
2023-03-30T10:59:07.530Z,1212
2023-03-30T11:01:07.545Z,1096.6
2023-03-30T11:03:14.173Z,1212
2023-03-30T11:05:07.570Z,1339.4
2023-03-30T11:07:07.588Z,1274.1
2023-03-30T11:09:07.492Z,1152.9
2023-03-30T11:11:07.672Z,1043.1
2023-03-30T11:13:07.869Z,943.9
2023-03-30T11:15:07.556Z,854.1
2023-03-30T11:17:07.650Z,854.1
2023-03-30T11:19:07.855Z,854.1
2023-03-30T11:21:07.732Z,897.8
2023-03-30T11:23:07.629Z,897.8
2023-03-30T11:25:07.557Z,897.8
2023-03-30T11:27:11.074Z,854.1
2023-03-30T11:29:11.146Z,812.4
2023-03-30T11:31:07.777Z,772.8
2023-03-30T11:33:07.473Z,772.8
2023-03-30T11:35:07.424Z,812.4
2023-03-30T11:37:11.134Z,1043.1
2023-03-30T11:39:08.411Z,1339.4
2023-03-30T11:41:10.991Z,1636
2023-03-30T11:43:10.991Z,1719.9
2023-03-30T11:45:07.590Z,1808
2023-03-30T11:47:07.473Z,1900.7
2023-03-30T11:49:07.500Z,1998.2
2023-03-30T11:53:14.582Z,1900.7
2023-03-30T11:55:11.102Z,1719.9
2023-03-30T11:57:10.942Z,1636
2023-03-30T11:59:07.683Z,1719.9
2023-03-30T12:01:07.747Z,2100.6
2023-03-30T12:03:07.680Z,2565.7
2023-03-30T12:05:08.058Z,2697.3
2023-03-30T12:07:07.800Z,2565.7
2023-03-30T12:09:07.655Z,2321.6
2023-03-30T12:11:14.223Z,2440.6
2023-03-30T12:13:07.513Z,2981
2023-03-30T12:15:07.464Z,3294.5
2023-03-30T12:17:07.656Z,2565.7
2023-03-30T12:19:11.107Z,2208.3
2023-03-30T12:21:07.816Z,2208.3
2023-03-30T12:23:07.548Z,2440.6
2023-03-30T12:25:07.816Z,2697.3
2023-03-30T12:27:09.088Z,2697.3
2023-03-30T12:31:07.787Z,2440.6
2023-03-30T12:33:10.892Z,2100.6
2023-03-30T12:35:07.449Z,1998.2
2023-03-30T12:37:07.696Z,1636
2023-03-30T12:39:07.759Z,1408.1
2023-03-30T12:41:07.718Z,1556.2
2023-03-30T12:43:08.049Z,1636
2023-03-30T12:45:07.567Z,1408.1
2023-03-30T12:47:09.087Z,1212
2023-03-30T12:49:11.093Z,1043.1
2023-03-30T12:51:07.618Z,992.3
2023-03-30T12:53:07.449Z,1152.9
2023-03-30T12:55:07.375Z,1480.3
2023-03-30T12:57:07.651Z,1900.7
2023-03-30T13:01:07.758Z,2321.6
2023-03-30T13:03:07.496Z,2565.7
2023-03-30T13:05:10.976Z,2697.3
2023-03-30T13:07:07.514Z,3133.8
2023-03-30T13:09:14.303Z,2835.6
2023-03-30T13:11:07.505Z,1900.7
2023-03-30T13:13:07.558Z,1556.2
2023-03-30T13:15:10.998Z,1480.3
2023-03-30T13:17:07.814Z,1636
2023-03-30T13:19:07.813Z,1900.7
2023-03-30T13:21:07.627Z,2100.6
2023-03-30T13:23:11.225Z,2321.6
2023-03-30T13:25:10.936Z,3133.8
2023-03-30T13:27:07.439Z,3463.4
2023-03-30T13:29:10.873Z,3641
2023-03-30T13:31:07.853Z,3641
2023-03-30T13:33:07.510Z,3294.5
2023-03-30T13:35:07.993Z,3463.4
2023-03-30T13:37:07.579Z,4023.9
2023-03-30T13:39:07.849Z,4675.1
2023-03-30T13:41:11.106Z,4230.2
2023-03-30T13:43:07.774Z,4023.9
2023-03-30T13:45:07.483Z,3463.4
2023-03-30T13:47:11.340Z,2981
2023-03-30T13:49:07.417Z,2697.3
2023-03-30T13:51:07.462Z,2835.6
2023-03-30T13:53:07.697Z,2981
2023-03-30T13:55:14.420Z,2981
2023-03-30T13:57:07.451Z,2981
2023-03-30T13:59:08.042Z,2981
2023-03-30T14:01:11.110Z,2981
2023-03-30T14:03:07.517Z,2981
2023-03-30T14:07:07.416Z,3294.5
2023-03-30T14:09:07.543Z,2835.6
2023-03-30T14:11:11.246Z,2321.6
2023-03-30T14:13:07.782Z,2208.3
2023-03-30T14:15:07.509Z,2208.3
2023-03-30T14:17:08.146Z,1998.2
2023-03-30T14:19:11.151Z,1900.7
2023-03-30T14:21:07.708Z,1900.7
2023-03-30T14:23:07.605Z,2321.6
2023-03-30T14:25:11.305Z,2835.6
2023-03-30T14:27:07.429Z,2981
2023-03-30T14:29:10.847Z,2981
2023-03-30T14:31:07.908Z,2835.6
2023-03-30T14:33:07.871Z,2835.6
2023-03-30T14:35:07.783Z,2835.6
2023-03-30T14:37:07.907Z,2697.3
2023-03-30T14:39:08.016Z,2697.3
2023-03-30T14:41:14.325Z,2835.6
2023-03-30T14:43:11.045Z,3463.4
2023-03-30T14:45:07.552Z,4914.8
2023-03-30T14:47:07.798Z,9414.4
2023-03-30T14:49:11.207Z,8518.5
2023-03-30T14:51:07.570Z,7707.9
2023-03-30T14:53:11.189Z,6974.4
2023-03-30T14:55:10.034Z,10404.6
2023-03-30T14:57:07.935Z,9897.1
2023-03-30T14:59:07.537Z,8518.5
2023-03-30T15:01:09.542Z,7707.9
2023-03-30T15:03:19.796Z,6634.2
2023-03-30T15:05:07.810Z,6974.4
2023-03-30T15:07:10.878Z,4447.1
2023-03-30T15:09:07.555Z,4675.1
2023-03-30T15:11:07.513Z,6002.9
2023-03-30T15:13:07.729Z,8955.3
2023-03-30T15:15:07.557Z,8955.3
2023-03-30T15:17:11.246Z,8103.1
2023-03-30T15:19:07.627Z,7332
2023-03-30T15:21:07.719Z,6974.4
2023-03-30T15:23:07.515Z,6310.7
2023-03-30T15:25:07.526Z,6002.9
2023-03-30T15:27:07.580Z,6002.9
2023-03-30T15:29:14.258Z,5710.1
2023-03-30T15:31:07.932Z,5166.8
2023-03-30T15:33:07.775Z,5710.1
2023-03-30T15:35:07.821Z,5431.7
2023-03-30T15:37:07.715Z,5431.7
2023-03-30T15:39:07.776Z,5431.7
2023-03-30T15:41:11.414Z,5431.7
2023-03-30T15:43:07.683Z,5166.8
2023-03-30T15:45:07.739Z,5166.8
2023-03-30T15:47:07.747Z,5166.8
2023-03-30T15:49:07.583Z,4914.8
2023-03-30T15:51:15.141Z,4914.8
2023-03-30T15:53:07.545Z,4914.8
2023-03-30T15:57:07.780Z,4914.8
2023-03-30T15:59:07.564Z,4230.2
2023-03-30T16:01:07.767Z,4023.9
2023-03-30T16:05:07.876Z,4230.2
2023-03-30T16:07:07.504Z,4230.2
2023-03-30T16:09:14.800Z,4675.1
2023-03-30T16:11:08.033Z,2835.6
2023-03-30T16:13:07.958Z,3641
2023-03-30T16:15:11.138Z,2981
2023-03-30T16:17:11.271Z,2321.6
2023-03-30T16:19:11.196Z,1719.9
2023-03-30T16:21:07.767Z,1339.4
2023-03-30T16:23:07.553Z,1339.4
2023-03-30T16:25:07.804Z,1152.9
2023-03-30T16:29:07.935Z,1152.9
2023-03-30T16:31:07.817Z,1480.3
2023-03-30T16:33:07.886Z,2100.6
2023-03-30T16:35:11.167Z,2440.6
2023-03-30T16:37:07.451Z,2697.3
2023-03-30T16:39:07.535Z,3294.5
2023-03-30T16:41:14.249Z,3133.8
2023-03-30T16:43:07.675Z,2321.6
2023-03-30T16:45:07.534Z,1998.2
2023-03-30T16:47:11.263Z,1900.7
2023-03-30T16:49:07.667Z,1808
2023-03-30T16:51:07.816Z,2100.6
2023-03-30T16:53:14.841Z,2440.6
2023-03-30T16:55:07.495Z,2440.6
2023-03-30T16:57:09.414Z,2440.6
2023-03-30T16:59:10.890Z,2321.6
2023-03-30T17:01:07.933Z,2321.6
2023-03-30T17:03:11.214Z,2208.3
2023-03-30T17:05:07.739Z,2100.6
2023-03-30T17:07:07.534Z,1998.2
2023-03-30T17:09:11.168Z,1808
2023-03-30T17:11:07.733Z,1556.2
2023-03-30T17:13:11.174Z,1339.4
2023-03-30T17:15:07.466Z,1212
2023-03-30T17:17:07.618Z,1152.9
2023-03-30T17:21:07.874Z,897.8
2023-03-30T17:23:07.438Z,665.1
2023-03-30T17:27:07.457Z,518
2023-03-30T17:29:07.667Z,468.7
2023-03-30T17:31:09.244Z,424.1
2023-03-30T17:33:07.437Z,365
2023-03-30T17:35:11.197Z,314.2
2023-03-30T17:37:07.687Z,257.2
2023-03-30T17:39:07.753Z,210.6
2023-03-30T17:41:07.896Z,181.3
2023-03-30T17:43:07.699Z,141.2
2023-03-30T17:45:07.715Z,109.9
2023-03-30T17:47:07.800Z,85.6
2023-03-30T17:51:11.329Z,49.4
2023-03-30T17:53:07.777Z,36.6
2023-03-30T17:55:07.611Z,27.1
2023-03-30T17:57:14.366Z,18.2
2023-03-30T17:59:07.545Z,12.8
2023-03-30T18:01:08.138Z,9
2023-03-30T18:03:07.593Z,5.8
2023-03-30T18:05:07.583Z,4.1
2023-03-30T18:07:07.495Z,2.7
2023-03-30T18:09:11.180Z,1.9
2023-03-30T18:13:07.709Z,0.9
2023-03-30T18:15:14.754Z,0.6
2023-03-30T18:17:07.613Z,0.4
2023-03-30T18:19:11.241Z,0.3
2023-03-30T18:21:07.830Z,0.2
2023-03-30T18:23:07.546Z,0.2
2023-03-30T18:25:07.675Z,0.1
2023-03-30T18:27:07.586Z,0
2023-03-30T18:29:11.292Z,0
2023-03-30T18:33:07.644Z,0
2023-03-30T18:35:14.334Z,0
2023-03-30T18:39:07.697Z,1
2023-03-30T18:41:11.208Z,1
2023-03-30T18:43:11.269Z,1
2023-03-30T18:45:07.640Z,1
2023-03-30T18:47:11.163Z,1
2023-03-30T18:49:07.577Z,1
2023-03-30T18:51:07.577Z,1
2023-03-30T18:53:11.247Z,1
2023-03-30T18:55:07.458Z,1
2023-03-30T18:57:07.844Z,1
2023-03-30T18:59:11.394Z,1
2023-03-30T19:01:11.105Z,1
2023-03-30T19:03:14.437Z,1
2023-03-30T19:05:07.768Z,1
2023-03-30T19:07:11.111Z,1
2023-03-30T19:09:11.181Z,1
2023-03-30T19:11:07.614Z,1
2023-03-30T19:13:08.022Z,1
2023-03-30T19:15:07.677Z,1
2023-03-30T19:17:07.987Z,1
2023-03-30T19:19:07.867Z,1
2023-03-30T19:21:11.181Z,1
2023-03-30T19:23:07.578Z,1
2023-03-30T19:25:11.270Z,1
2023-03-30T19:27:07.810Z,1
2023-03-30T19:29:07.590Z,1
2023-03-30T19:31:14.486Z,1
2023-03-30T19:33:07.614Z,1
2023-03-30T19:35:11.026Z,1
2023-03-30T19:37:07.552Z,1
2023-03-30T19:39:10.978Z,1
2023-03-30T19:41:11.235Z,1
2023-03-30T19:43:07.596Z,1
2023-03-30T19:45:07.572Z,1
2023-03-30T19:47:07.726Z,1
2023-03-30T19:49:07.890Z,1
2023-03-30T19:51:08.025Z,1
2023-03-30T19:55:07.830Z,1
2023-03-30T19:57:07.926Z,1
2023-03-30T20:01:07.581Z,1
2023-03-30T20:03:11.292Z,1
2023-03-30T20:05:07.805Z,1
2023-03-30T20:07:11.243Z,1
2023-03-30T20:09:10.873Z,1
2023-03-30T20:11:07.554Z,1
2023-03-30T20:13:07.774Z,1
2023-03-30T20:15:07.767Z,1
2023-03-30T20:17:11.132Z,1
2023-03-30T20:19:16.079Z,1
2023-03-30T20:21:07.844Z,1
2023-03-30T20:23:07.576Z,1
2023-03-30T20:25:07.759Z,1
2023-03-30T20:27:07.715Z,1
2023-03-30T20:29:07.551Z,1
2023-03-30T20:31:07.902Z,1
2023-03-30T20:33:08.731Z,1
2023-03-30T20:35:07.628Z,1
2023-03-30T20:37:07.787Z,1
2023-03-30T20:39:11.169Z,1
2023-03-30T20:41:07.642Z,1
2023-03-30T20:43:07.623Z,1
2023-03-30T20:45:07.769Z,1
2023-03-30T20:47:11.195Z,1
2023-03-30T20:49:07.893Z,1
2023-03-30T20:51:11.227Z,1
2023-03-30T20:53:07.961Z,1
2023-03-30T20:55:07.870Z,1
2023-03-30T21:01:11.450Z,1
2023-03-30T21:03:11.198Z,1
2023-03-30T21:05:14.851Z,1
2023-03-30T21:07:07.867Z,1
2023-03-30T21:09:07.645Z,1
2023-03-30T21:11:07.783Z,1
2023-03-30T21:13:08.137Z,1
2023-03-30T21:15:07.862Z,1
2023-03-30T21:19:07.597Z,1
2023-03-30T21:21:07.695Z,1
2023-03-30T21:23:07.761Z,1
2023-03-30T21:25:07.771Z,1
2023-03-30T21:29:07.640Z,1
2023-03-30T21:31:07.913Z,1
2023-03-30T21:33:11.024Z,1
2023-03-30T21:35:07.718Z,1
2023-03-30T21:37:11.416Z,1
2023-03-30T21:39:07.564Z,1
2023-03-30T21:41:11.447Z,1
2023-03-30T21:43:07.593Z,1
2023-03-30T21:45:07.771Z,1
2023-03-30T21:47:14.259Z,1
2023-03-30T21:49:07.599Z,1
2023-03-30T21:51:11.191Z,1
2023-03-30T21:53:07.598Z,1
2023-03-30T21:55:07.644Z,1
2023-03-30T21:57:07.733Z,1
2023-03-30T21:59:11.230Z,1
2023-03-30T22:01:12.590Z,1
2023-03-30T22:03:11.220Z,1
2023-03-30T22:05:08.107Z,1
2023-03-30T22:07:07.617Z,1
2023-03-30T22:09:11.204Z,1
2023-03-30T22:11:07.656Z,1
2023-03-30T22:13:11.169Z,1
2023-03-30T22:15:07.779Z,1
2023-03-30T22:17:07.856Z,1
2023-03-30T22:19:08.014Z,1
2023-03-30T22:21:08.049Z,1
2023-03-30T22:23:07.836Z,1
2023-03-30T22:25:07.763Z,1
2023-03-30T22:27:07.595Z,1
2023-03-30T22:29:14.963Z,1
2023-03-30T22:31:11.178Z,1
2023-03-30T22:33:07.584Z,1
2023-03-30T22:35:10.817Z,1
2023-03-30T22:37:07.650Z,1
2023-03-30T22:39:11.080Z,1
2023-03-30T22:41:08.079Z,1
2023-03-30T22:43:07.604Z,1
2023-03-30T22:45:07.680Z,1
2023-03-30T22:47:07.727Z,1
2023-03-30T22:49:07.783Z,1
2023-03-30T22:51:07.597Z,1
2023-03-30T22:53:07.602Z,1
2023-03-30T22:55:07.712Z,1
2023-03-30T22:57:07.908Z,1
2023-03-30T22:59:10.865Z,1
2023-03-30T23:01:07.644Z,1
2023-03-30T23:03:11.027Z,1
2023-03-30T23:05:07.654Z,1
2023-03-30T23:07:07.796Z,1
2023-03-30T23:09:07.677Z,1
2023-03-30T23:11:07.776Z,1
2023-03-30T23:13:07.765Z,1
2023-03-30T23:15:07.743Z,1
2023-03-30T23:17:07.762Z,1
2023-03-30T23:19:07.649Z,1
2023-03-30T23:21:07.889Z,1
2023-03-30T23:23:07.717Z,1
2023-03-30T23:25:11.431Z,1
2023-03-30T23:29:07.643Z,1
2023-03-30T23:31:07.794Z,1
2023-03-30T23:33:07.652Z,1
2023-03-30T23:35:07.754Z,1
2023-03-30T23:37:10.906Z,1
2023-03-30T23:39:14.272Z,1
2023-03-30T23:41:07.674Z,1
2023-03-30T23:43:07.572Z,1
2023-03-30T23:45:07.672Z,1
2023-03-30T23:47:14.400Z,1
2023-03-30T23:49:07.701Z,1
2023-03-30T23:51:07.828Z,1
2023-03-30T23:53:14.498Z,1
2023-03-30T23:55:07.784Z,1
2023-03-30T23:57:07.711Z,1
2023-03-30T23:59:07.600Z,1
